sensor_id;sensor_type;location;lat;lon;timestamp;P1;durP1;ratioP1;P2;durP2;ratioP2
51214;SDS011;63849;47.546;19.254;2023-05-29T00:00:57;8.88;;;5.97;;
51214;SDS011;63849;47.546;19.254;2023-05-29T00:03:22;8.55;;;6.82;;
51214;SDS011;63849;47.546;19.254;2023-05-29T00:05:48;10.35;;;7.32;;
51214;SDS011;63849;47.546;19.254;2023-05-29T00:08:14;8.15;;;6.65;;
51214;SDS011;63849;47.546;19.254;2023-05-29T00:10:40;8.15;;;6.25;;
51214;SDS011;63849;47.546;19.254;2023-05-29T00:13:06;10.38;;;7.15;;
51214;SDS011;63849;47.546;19.254;2023-05-29T00:15:32;12.52;;;7.40;;
51214;SDS011;63849;47.546;19.254;2023-05-29T00:17:58;8.65;;;6.90;;
51214;SDS011;63849;47.546;19.254;2023-05-29T00:20:23;8.38;;;6.65;;
51214;SDS011;63849;47.546;19.254;2023-05-29T00:22:49;10.38;;;6.75;;
51214;SDS011;63849;47.546;19.254;2023-05-29T00:25:15;10.85;;;6.88;;
51214;SDS011;63849;47.546;19.254;2023-05-29T00:27:41;10.05;;;6.43;;
51214;SDS011;63849;47.546;19.254;2023-05-29T00:30:07;7.97;;;6.28;;
51214;SDS011;63849;47.546;19.254;2023-05-29T00:32:33;10.43;;;6.60;;
51214;SDS011;63849;47.546;19.254;2023-05-29T00:34:59;7.65;;;6.00;;
51214;SDS011;63849;47.546;19.254;2023-05-29T00:37:25;8.23;;;6.03;;
51214;SDS011;63849;47.546;19.254;2023-05-29T00:39:51;8.30;;;6.18;;
51214;SDS011;63849;47.546;19.254;2023-05-29T00:42:16;10.95;;;6.20;;
51214;SDS011;63849;47.546;19.254;2023-05-29T00:44:42;10.07;;;6.38;;
51214;SDS011;63849;47.546;19.254;2023-05-29T00:47:08;8.98;;;6.80;;
51214;SDS011;63849;47.546;19.254;2023-05-29T00:49:35;8.45;;;5.45;;
51214;SDS011;63849;47.546;19.254;2023-05-29T00:52:02;7.78;;;6.05;;
51214;SDS011;63849;47.546;19.254;2023-05-29T00:54:31;7.60;;;6.05;;
51214;SDS011;63849;47.546;19.254;2023-05-29T00:56:57;7.55;;;6.30;;
51214;SDS011;63849;47.546;19.254;2023-05-29T00:59:27;7.13;;;5.93;;
51214;SDS011;63849;47.546;19.254;2023-05-29T01:01:55;8.30;;;6.20;;
51214;SDS011;63849;47.546;19.254;2023-05-29T01:04:23;7.80;;;6.43;;
51214;SDS011;63849;47.546;19.254;2023-05-29T01:06:50;9.70;;;5.95;;
51214;SDS011;63849;47.546;19.254;2023-05-29T01:09:16;7.03;;;5.30;;
51214;SDS011;63849;47.546;19.254;2023-05-29T01:28:41;8.60;;;6.65;;
51214;SDS011;63849;47.546;19.254;2023-05-29T01:31:09;7.68;;;5.88;;
51214;SDS011;63849;47.546;19.254;2023-05-29T01:33:40;7.47;;;6.32;;
51214;SDS011;63849;47.546;19.254;2023-05-29T01:36:08;7.03;;;5.57;;
51214;SDS011;63849;47.546;19.254;2023-05-29T01:38:34;8.13;;;6.30;;
51214;SDS011;63849;47.546;19.254;2023-05-29T01:41:00;9.40;;;6.53;;
51214;SDS011;63849;47.546;19.254;2023-05-29T01:43:26;7.50;;;5.82;;
51214;SDS011;63849;47.546;19.254;2023-05-29T01:45:53;7.47;;;6.18;;
51214;SDS011;63849;47.546;19.254;2023-05-29T01:48:18;7.80;;;6.10;;
51214;SDS011;63849;47.546;19.254;2023-05-29T01:50:45;9.07;;;6.47;;
51214;SDS011;63849;47.546;19.254;2023-05-29T01:53:12;9.02;;;6.32;;
51214;SDS011;63849;47.546;19.254;2023-05-29T01:55:38;8.88;;;6.20;;
51214;SDS011;63849;47.546;19.254;2023-05-29T01:58:04;8.40;;;6.50;;
51214;SDS011;63849;47.546;19.254;2023-05-29T02:00:32;11.65;;;6.68;;
51214;SDS011;63849;47.546;19.254;2023-05-29T02:02:58;8.43;;;5.95;;
51214;SDS011;63849;47.546;19.254;2023-05-29T02:05:24;7.95;;;6.00;;
51214;SDS011;63849;47.546;19.254;2023-05-29T02:07:50;9.60;;;6.22;;
51214;SDS011;63849;47.546;19.254;2023-05-29T02:10:15;7.72;;;5.95;;
51214;SDS011;63849;47.546;19.254;2023-05-29T02:12:41;8.38;;;5.53;;
51214;SDS011;63849;47.546;19.254;2023-05-29T02:15:07;9.40;;;6.05;;
51214;SDS011;63849;47.546;19.254;2023-05-29T02:17:33;7.82;;;5.72;;
51214;SDS011;63849;47.546;19.254;2023-05-29T02:19:59;8.18;;;6.45;;
51214;SDS011;63849;47.546;19.254;2023-05-29T02:22:25;8.45;;;5.82;;
51214;SDS011;63849;47.546;19.254;2023-05-29T02:24:51;9.52;;;6.18;;
51214;SDS011;63849;47.546;19.254;2023-05-29T02:27:16;9.57;;;6.22;;
51214;SDS011;63849;47.546;19.254;2023-05-29T02:29:42;8.02;;;6.57;;
51214;SDS011;63849;47.546;19.254;2023-05-29T02:32:08;8.15;;;5.65;;
51214;SDS011;63849;47.546;19.254;2023-05-29T02:34:34;8.85;;;5.88;;
51214;SDS011;63849;47.546;19.254;2023-05-29T02:37:01;7.63;;;6.13;;
51214;SDS011;63849;47.546;19.254;2023-05-29T02:39:27;7.40;;;5.57;;
51214;SDS011;63849;47.546;19.254;2023-05-29T02:41:53;8.77;;;5.78;;
51214;SDS011;63849;47.546;19.254;2023-05-29T02:44:20;9.30;;;5.97;;
51214;SDS011;63849;47.546;19.254;2023-05-29T02:46:45;9.25;;;5.78;;
51214;SDS011;63849;47.546;19.254;2023-05-29T02:49:11;10.98;;;5.55;;
51214;SDS011;63849;47.546;19.254;2023-05-29T02:51:37;7.80;;;5.82;;
51214;SDS011;63849;47.546;19.254;2023-05-29T02:54:03;8.05;;;5.70;;
51214;SDS011;63849;47.546;19.254;2023-05-29T02:56:29;8.38;;;5.80;;
51214;SDS011;63849;47.546;19.254;2023-05-29T02:58:54;10.07;;;5.85;;
51214;SDS011;63849;47.546;19.254;2023-05-29T03:01:20;9.80;;;6.18;;
51214;SDS011;63849;47.546;19.254;2023-05-29T03:03:46;8.55;;;5.47;;
51214;SDS011;63849;47.546;19.254;2023-05-29T03:06:12;8.07;;;5.95;;
51214;SDS011;63849;47.546;19.254;2023-05-29T03:08:38;9.88;;;5.53;;
51214;SDS011;63849;47.546;19.254;2023-05-29T03:11:10;7.80;;;5.80;;
51214;SDS011;63849;47.546;19.254;2023-05-29T03:13:36;8.25;;;5.50;;
51214;SDS011;63849;47.546;19.254;2023-05-29T03:16:03;11.27;;;5.03;;
51214;SDS011;63849;47.546;19.254;2023-05-29T03:18:29;8.25;;;5.93;;
51214;SDS011;63849;47.546;19.254;2023-05-29T03:20:55;7.93;;;5.25;;
51214;SDS011;63849;47.546;19.254;2023-05-29T03:23:21;8.55;;;5.45;;
51214;SDS011;63849;47.546;19.254;2023-05-29T03:25:46;8.25;;;4.85;;
51214;SDS011;63849;47.546;19.254;2023-05-29T03:28:12;9.35;;;4.55;;
51214;SDS011;63849;47.546;19.254;2023-05-29T03:30:38;9.32;;;5.30;;
51214;SDS011;63849;47.546;19.254;2023-05-29T03:33:04;8.63;;;5.65;;
51214;SDS011;63849;47.546;19.254;2023-05-29T03:35:30;7.93;;;5.93;;
51214;SDS011;63849;47.546;19.254;2023-05-29T03:37:55;6.97;;;5.30;;
51214;SDS011;63849;47.546;19.254;2023-05-29T03:40:21;8.90;;;6.10;;
51214;SDS011;63849;47.546;19.254;2023-05-29T03:42:47;9.80;;;5.53;;
51214;SDS011;63849;47.546;19.254;2023-05-29T03:45:12;12.15;;;5.70;;
51214;SDS011;63849;47.546;19.254;2023-05-29T03:47:38;5.85;;;4.63;;
51214;SDS011;63849;47.546;19.254;2023-05-29T03:50:04;7.10;;;5.15;;
51214;SDS011;63849;47.546;19.254;2023-05-29T03:52:30;7.57;;;5.22;;
51214;SDS011;63849;47.546;19.254;2023-05-29T03:54:56;9.10;;;5.57;;
51214;SDS011;63849;47.546;19.254;2023-05-29T03:57:22;10.80;;;5.18;;
51214;SDS011;63849;47.546;19.254;2023-05-29T03:59:47;9.40;;;5.60;;
51214;SDS011;63849;47.546;19.254;2023-05-29T04:02:13;7.10;;;4.97;;
51214;SDS011;63849;47.546;19.254;2023-05-29T04:04:39;10.00;;;5.03;;
51214;SDS011;63849;47.546;19.254;2023-05-29T04:07:05;7.60;;;5.43;;
51214;SDS011;63849;47.546;19.254;2023-05-29T04:09:32;8.45;;;4.93;;
51214;SDS011;63849;47.546;19.254;2023-05-29T04:11:59;9.05;;;5.28;;
51214;SDS011;63849;47.546;19.254;2023-05-29T04:14:27;7.75;;;4.88;;
51214;SDS011;63849;47.546;19.254;2023-05-29T04:16:53;11.88;;;5.18;;
51214;SDS011;63849;47.546;19.254;2023-05-29T04:19:19;6.38;;;5.15;;
51214;SDS011;63849;47.546;19.254;2023-05-29T04:21:46;5.88;;;5.25;;
51214;SDS011;63849;47.546;19.254;2023-05-29T04:24:13;8.65;;;4.85;;
51214;SDS011;63849;47.546;19.254;2023-05-29T04:26:39;5.60;;;4.97;;
51214;SDS011;63849;47.546;19.254;2023-05-29T04:29:09;8.48;;;4.82;;
51214;SDS011;63849;47.546;19.254;2023-05-29T04:31:37;8.52;;;4.80;;
51214;SDS011;63849;47.546;19.254;2023-05-29T04:34:03;6.55;;;5.10;;
51214;SDS011;63849;47.546;19.254;2023-05-29T04:36:32;7.20;;;4.80;;
51214;SDS011;63849;47.546;19.254;2023-05-29T04:38:58;6.57;;;4.47;;
51214;SDS011;63849;47.546;19.254;2023-05-29T04:41:25;7.20;;;4.93;;
51214;SDS011;63849;47.546;19.254;2023-05-29T04:43:54;7.53;;;4.75;;
51214;SDS011;63849;47.546;19.254;2023-05-29T04:46:22;7.88;;;4.88;;
51214;SDS011;63849;47.546;19.254;2023-05-29T04:48:49;6.50;;;4.45;;
51214;SDS011;63849;47.546;19.254;2023-05-29T04:51:21;6.80;;;4.50;;
51214;SDS011;63849;47.546;19.254;2023-05-29T04:53:47;7.95;;;4.97;;
51214;SDS011;63849;47.546;19.254;2023-05-29T04:56:13;10.20;;;4.70;;
51214;SDS011;63849;47.546;19.254;2023-05-29T04:58:40;5.18;;;4.68;;
51214;SDS011;63849;47.546;19.254;2023-05-29T05:01:06;10.55;;;4.68;;
51214;SDS011;63849;47.546;19.254;2023-05-29T05:03:39;11.55;;;5.10;;
51214;SDS011;63849;47.546;19.254;2023-05-29T05:06:05;6.13;;;4.25;;
51214;SDS011;63849;47.546;19.254;2023-05-29T05:08:32;6.43;;;4.68;;
51214;SDS011;63849;47.546;19.254;2023-05-29T05:10:59;5.43;;;4.60;;
51214;SDS011;63849;47.546;19.254;2023-05-29T05:13:25;4.88;;;4.45;;
51214;SDS011;63849;47.546;19.254;2023-05-29T05:15:51;6.22;;;4.57;;
51214;SDS011;63849;47.546;19.254;2023-05-29T05:18:17;6.95;;;4.85;;
51214;SDS011;63849;47.546;19.254;2023-05-29T05:20:44;5.63;;;4.35;;
51214;SDS011;63849;47.546;19.254;2023-05-29T05:23:10;4.90;;;4.22;;
51214;SDS011;63849;47.546;19.254;2023-05-29T05:25:36;5.65;;;4.18;;
51214;SDS011;63849;47.546;19.254;2023-05-29T05:28:03;7.28;;;4.60;;
51214;SDS011;63849;47.546;19.254;2023-05-29T05:30:30;6.90;;;4.28;;
51214;SDS011;63849;47.546;19.254;2023-05-29T05:32:56;4.75;;;3.88;;
51214;SDS011;63849;47.546;19.254;2023-05-29T05:35:22;5.75;;;4.43;;
51214;SDS011;63849;47.546;19.254;2023-05-29T05:37:48;5.57;;;4.07;;
51214;SDS011;63849;47.546;19.254;2023-05-29T05:40:14;6.40;;;4.90;;
51214;SDS011;63849;47.546;19.254;2023-05-29T05:42:40;4.95;;;4.03;;
51214;SDS011;63849;47.546;19.254;2023-05-29T05:45:06;5.18;;;3.95;;
51214;SDS011;63849;47.546;19.254;2023-05-29T05:47:32;5.68;;;4.30;;
51214;SDS011;63849;47.546;19.254;2023-05-29T05:49:58;6.30;;;4.10;;
51214;SDS011;63849;47.546;19.254;2023-05-29T05:52:24;6.95;;;4.20;;
51214;SDS011;63849;47.546;19.254;2023-05-29T05:54:51;6.03;;;4.57;;
51214;SDS011;63849;47.546;19.254;2023-05-29T05:57:17;4.65;;;4.18;;
51214;SDS011;63849;47.546;19.254;2023-05-29T05:59:43;5.30;;;3.88;;
51214;SDS011;63849;47.546;19.254;2023-05-29T06:02:08;4.53;;;4.10;;
51214;SDS011;63849;47.546;19.254;2023-05-29T06:04:34;8.48;;;4.45;;
51214;SDS011;63849;47.546;19.254;2023-05-29T06:07:00;7.35;;;4.70;;
51214;SDS011;63849;47.546;19.254;2023-05-29T06:09:26;5.70;;;4.38;;
51214;SDS011;63849;47.546;19.254;2023-05-29T06:11:53;6.53;;;4.15;;
51214;SDS011;63849;47.546;19.254;2023-05-29T06:14:18;6.78;;;4.18;;
51214;SDS011;63849;47.546;19.254;2023-05-29T06:16:44;6.10;;;4.43;;
51214;SDS011;63849;47.546;19.254;2023-05-29T06:19:10;5.07;;;4.15;;
51214;SDS011;63849;47.546;19.254;2023-05-29T06:21:36;6.47;;;4.53;;
51214;SDS011;63849;47.546;19.254;2023-05-29T06:24:02;6.45;;;4.57;;
51214;SDS011;63849;47.546;19.254;2023-05-29T06:26:28;5.88;;;4.18;;
51214;SDS011;63849;47.546;19.254;2023-05-29T06:28:54;6.55;;;4.80;;
51214;SDS011;63849;47.546;19.254;2023-05-29T06:31:20;6.70;;;4.53;;
51214;SDS011;63849;47.546;19.254;2023-05-29T06:33:46;8.77;;;4.97;;
51214;SDS011;63849;47.546;19.254;2023-05-29T06:36:12;7.60;;;4.82;;
51214;SDS011;63849;47.546;19.254;2023-05-29T06:38:38;7.75;;;4.85;;
51214;SDS011;63849;47.546;19.254;2023-05-29T06:41:05;6.97;;;4.80;;
51214;SDS011;63849;47.546;19.254;2023-05-29T06:43:30;7.88;;;4.68;;
51214;SDS011;63849;47.546;19.254;2023-05-29T06:45:56;5.30;;;4.13;;
51214;SDS011;63849;47.546;19.254;2023-05-29T06:48:22;6.95;;;4.35;;
51214;SDS011;63849;47.546;19.254;2023-05-29T06:50:48;7.53;;;4.50;;
51214;SDS011;63849;47.546;19.254;2023-05-29T06:53:13;7.85;;;4.65;;
51214;SDS011;63849;47.546;19.254;2023-05-29T06:55:39;5.65;;;4.40;;
51214;SDS011;63849;47.546;19.254;2023-05-29T06:58:08;6.68;;;4.40;;
51214;SDS011;63849;47.546;19.254;2023-05-29T07:00:33;5.53;;;4.18;;
51214;SDS011;63849;47.546;19.254;2023-05-29T07:02:59;7.60;;;4.55;;
51214;SDS011;63849;47.546;19.254;2023-05-29T07:05:26;5.53;;;3.97;;
51214;SDS011;63849;47.546;19.254;2023-05-29T07:07:52;6.35;;;4.55;;
51214;SDS011;63849;47.546;19.254;2023-05-29T07:10:17;6.63;;;4.50;;
51214;SDS011;63849;47.546;19.254;2023-05-29T07:12:43;7.90;;;4.53;;
51214;SDS011;63849;47.546;19.254;2023-05-29T07:15:09;6.15;;;4.25;;
51214;SDS011;63849;47.546;19.254;2023-05-29T07:17:35;5.60;;;4.68;;
51214;SDS011;63849;47.546;19.254;2023-05-29T07:20:01;5.07;;;4.57;;
51214;SDS011;63849;47.546;19.254;2023-05-29T07:22:26;8.65;;;4.70;;
51214;SDS011;63849;47.546;19.254;2023-05-29T07:24:52;9.02;;;5.20;;
51214;SDS011;63849;47.546;19.254;2023-05-29T07:27:18;6.93;;;4.75;;
51214;SDS011;63849;47.546;19.254;2023-05-29T07:29:43;6.40;;;4.63;;
51214;SDS011;63849;47.546;19.254;2023-05-29T07:32:09;7.63;;;4.57;;
51214;SDS011;63849;47.546;19.254;2023-05-29T07:34:36;5.40;;;4.90;;
51214;SDS011;63849;47.546;19.254;2023-05-29T07:37:03;5.50;;;4.70;;
51214;SDS011;63849;47.546;19.254;2023-05-29T07:39:33;7.25;;;4.53;;
51214;SDS011;63849;47.546;19.254;2023-05-29T07:42:00;7.90;;;4.95;;
51214;SDS011;63849;47.546;19.254;2023-05-29T07:44:27;6.20;;;4.78;;
51214;SDS011;63849;47.546;19.254;2023-05-29T07:46:53;6.28;;;4.50;;
51214;SDS011;63849;47.546;19.254;2023-05-29T07:49:21;5.90;;;4.53;;
51214;SDS011;63849;47.546;19.254;2023-05-29T07:51:47;7.13;;;4.90;;
51214;SDS011;63849;47.546;19.254;2023-05-29T07:54:13;6.18;;;4.47;;
51214;SDS011;63849;47.546;19.254;2023-05-29T07:56:42;4.95;;;4.45;;
51214;SDS011;63849;47.546;19.254;2023-05-29T07:59:09;6.45;;;4.38;;
51214;SDS011;63849;47.546;19.254;2023-05-29T08:01:35;6.13;;;4.78;;
51214;SDS011;63849;47.546;19.254;2023-05-29T08:04:02;7.15;;;4.75;;
51214;SDS011;63849;47.546;19.254;2023-05-29T08:06:27;7.35;;;4.88;;
51214;SDS011;63849;47.546;19.254;2023-05-29T08:08:53;6.00;;;4.90;;
51214;SDS011;63849;47.546;19.254;2023-05-29T08:11:19;7.93;;;4.80;;
51214;SDS011;63849;47.546;19.254;2023-05-29T08:13:46;8.55;;;5.32;;
51214;SDS011;63849;47.546;19.254;2023-05-29T08:16:12;8.07;;;5.13;;
51214;SDS011;63849;47.546;19.254;2023-05-29T08:18:41;5.90;;;4.60;;
51214;SDS011;63849;47.546;19.254;2023-05-29T08:21:06;5.88;;;5.28;;
51214;SDS011;63849;47.546;19.254;2023-05-29T08:23:32;7.75;;;5.35;;
51214;SDS011;63849;47.546;19.254;2023-05-29T08:25:58;7.57;;;4.65;;
51214;SDS011;63849;47.546;19.254;2023-05-29T08:28:23;5.53;;;4.90;;
51214;SDS011;63849;47.546;19.254;2023-05-29T08:30:51;5.95;;;4.70;;
51214;SDS011;63849;47.546;19.254;2023-05-29T08:33:17;5.95;;;4.30;;
51214;SDS011;63849;47.546;19.254;2023-05-29T08:35:43;6.97;;;5.00;;
51214;SDS011;63849;47.546;19.254;2023-05-29T08:38:09;6.13;;;5.30;;
51214;SDS011;63849;47.546;19.254;2023-05-29T08:40:34;7.18;;;5.70;;
51214;SDS011;63849;47.546;19.254;2023-05-29T08:43:22;5.60;;;5.07;;
51214;SDS011;63849;47.546;19.254;2023-05-29T08:45:47;7.47;;;4.70;;
51214;SDS011;63849;47.546;19.254;2023-05-29T08:48:18;6.20;;;5.57;;
51214;SDS011;63849;47.546;19.254;2023-05-29T08:50:47;5.78;;;4.82;;
51214;SDS011;63849;47.546;19.254;2023-05-29T08:53:16;7.30;;;5.22;;
51214;SDS011;63849;47.546;19.254;2023-05-29T08:55:44;5.65;;;5.00;;
51214;SDS011;63849;47.546;19.254;2023-05-29T08:58:13;6.45;;;4.78;;
51214;SDS011;63849;47.546;19.254;2023-05-29T09:00:39;5.50;;;4.20;;
51214;SDS011;63849;47.546;19.254;2023-05-29T09:03:06;8.48;;;4.40;;
51214;SDS011;63849;47.546;19.254;2023-05-29T09:05:32;8.82;;;5.32;;
51214;SDS011;63849;47.546;19.254;2023-05-29T09:07:58;7.47;;;5.10;;
51214;SDS011;63849;47.546;19.254;2023-05-29T09:10:24;5.95;;;5.10;;
51214;SDS011;63849;47.546;19.254;2023-05-29T09:12:51;6.25;;;5.07;;
51214;SDS011;63849;47.546;19.254;2023-05-29T09:15:18;10.80;;;4.80;;
51214;SDS011;63849;47.546;19.254;2023-05-29T09:17:54;8.75;;;4.97;;
51214;SDS011;63849;47.546;19.254;2023-05-29T09:20:22;6.70;;;4.97;;
51214;SDS011;63849;47.546;19.254;2023-05-29T09:25:25;8.20;;;5.45;;
51214;SDS011;63849;47.546;19.254;2023-05-29T09:27:59;8.40;;;4.70;;
51214;SDS011;63849;47.546;19.254;2023-05-29T09:30:31;10.45;;;5.28;;
51214;SDS011;63849;47.546;19.254;2023-05-29T09:32:59;6.18;;;5.53;;
51214;SDS011;63849;47.546;19.254;2023-05-29T09:35:27;7.82;;;5.20;;
51214;SDS011;63849;47.546;19.254;2023-05-29T09:38:06;5.32;;;4.22;;
51214;SDS011;63849;47.546;19.254;2023-05-29T09:40:33;8.90;;;5.43;;
51214;SDS011;63849;47.546;19.254;2023-05-29T09:43:03;6.30;;;5.00;;
51214;SDS011;63849;47.546;19.254;2023-05-29T09:45:30;7.32;;;5.40;;
51214;SDS011;63849;47.546;19.254;2023-05-29T09:47:56;7.80;;;5.70;;
51214;SDS011;63849;47.546;19.254;2023-05-29T09:50:26;6.55;;;4.80;;
51214;SDS011;63849;47.546;19.254;2023-05-29T09:52:53;7.43;;;5.20;;
51214;SDS011;63849;47.546;19.254;2023-05-29T09:55:22;6.65;;;5.03;;
51214;SDS011;63849;47.546;19.254;2023-05-29T09:57:52;6.78;;;5.63;;
51214;SDS011;63849;47.546;19.254;2023-05-29T10:00:19;7.10;;;5.30;;
51214;SDS011;63849;47.546;19.254;2023-05-29T10:02:47;9.15;;;4.78;;
51214;SDS011;63849;47.546;19.254;2023-05-29T10:05:14;11.02;;;5.05;;
51214;SDS011;63849;47.546;19.254;2023-05-29T10:07:43;8.38;;;4.80;;
51214;SDS011;63849;47.546;19.254;2023-05-29T10:10:12;8.77;;;5.07;;
51214;SDS011;63849;47.546;19.254;2023-05-29T10:12:40;6.32;;;5.30;;
51214;SDS011;63849;47.546;19.254;2023-05-29T10:15:13;7.13;;;5.00;;
51214;SDS011;63849;47.546;19.254;2023-05-29T10:17:44;9.07;;;6.82;;
51214;SDS011;63849;47.546;19.254;2023-05-29T10:20:12;11.43;;;7.22;;
51214;SDS011;63849;47.546;19.254;2023-05-29T10:22:42;10.45;;;7.07;;
51214;SDS011;63849;47.546;19.254;2023-05-29T10:25:12;8.15;;;6.30;;
51214;SDS011;63849;47.546;19.254;2023-05-29T10:27:40;8.90;;;6.28;;
51214;SDS011;63849;47.546;19.254;2023-05-29T10:35:40;8.30;;;5.68;;
51214;SDS011;63849;47.546;19.254;2023-05-29T10:38:20;6.47;;;5.78;;
51214;SDS011;63849;47.546;19.254;2023-05-29T10:40:46;7.15;;;5.70;;
51214;SDS011;63849;47.546;19.254;2023-05-29T10:46:09;6.63;;;5.85;;
51214;SDS011;63849;47.546;19.254;2023-05-29T10:48:39;8.02;;;5.68;;
51214;SDS011;63849;47.546;19.254;2023-05-29T10:51:06;6.85;;;5.30;;
51214;SDS011;63849;47.546;19.254;2023-05-29T10:53:35;7.95;;;6.00;;
51214;SDS011;63849;47.546;19.254;2023-05-29T10:56:07;7.45;;;5.55;;
51214;SDS011;63849;47.546;19.254;2023-05-29T10:58:34;6.43;;;5.70;;
51214;SDS011;63849;47.546;19.254;2023-05-29T11:01:00;8.55;;;5.63;;
51214;SDS011;63849;47.546;19.254;2023-05-29T11:03:32;7.82;;;5.90;;
51214;SDS011;63849;47.546;19.254;2023-05-29T11:06:00;6.43;;;5.43;;
51214;SDS011;63849;47.546;19.254;2023-05-29T11:08:28;6.38;;;4.80;;
51214;SDS011;63849;47.546;19.254;2023-05-29T11:10:59;5.22;;;4.70;;
51214;SDS011;63849;47.546;19.254;2023-05-29T11:13:32;6.63;;;5.28;;
51214;SDS011;63849;47.546;19.254;2023-05-29T11:18:40;8.88;;;5.15;;
51214;SDS011;63849;47.546;19.254;2023-05-29T11:23:57;6.63;;;5.95;;
51214;SDS011;63849;47.546;19.254;2023-05-29T11:26:26;11.25;;;5.63;;
51214;SDS011;63849;47.546;19.254;2023-05-29T11:28:53;9.23;;;5.78;;
51214;SDS011;63849;47.546;19.254;2023-05-29T11:31:21;8.05;;;5.57;;
51214;SDS011;63849;47.546;19.254;2023-05-29T11:33:50;6.70;;;5.95;;
51214;SDS011;63849;47.546;19.254;2023-05-29T11:36:17;8.02;;;5.78;;
51214;SDS011;63849;47.546;19.254;2023-05-29T11:38:46;8.05;;;6.15;;
51214;SDS011;63849;47.546;19.254;2023-05-29T11:41:12;8.20;;;5.63;;
51214;SDS011;63849;47.546;19.254;2023-05-29T11:43:38;14.02;;;6.15;;
51214;SDS011;63849;47.546;19.254;2023-05-29T11:48:59;6.50;;;5.43;;
51214;SDS011;63849;47.546;19.254;2023-05-29T11:51:26;9.95;;;5.82;;
51214;SDS011;63849;47.546;19.254;2023-05-29T11:53:52;7.68;;;5.70;;
51214;SDS011;63849;47.546;19.254;2023-05-29T11:56:23;7.68;;;5.00;;
51214;SDS011;63849;47.546;19.254;2023-05-29T11:58:53;7.88;;;5.72;;
51214;SDS011;63849;47.546;19.254;2023-05-29T12:01:23;8.82;;;5.32;;
51214;SDS011;63849;47.546;19.254;2023-05-29T12:03:50;8.80;;;5.65;;
51214;SDS011;63849;47.546;19.254;2023-05-29T12:06:16;7.90;;;5.47;;
51214;SDS011;63849;47.546;19.254;2023-05-29T12:08:56;6.00;;;5.40;;
51214;SDS011;63849;47.546;19.254;2023-05-29T12:11:24;8.95;;;5.63;;
51214;SDS011;63849;47.546;19.254;2023-05-29T12:13:59;6.05;;;5.10;;
51214;SDS011;63849;47.546;19.254;2023-05-29T12:16:29;6.75;;;5.80;;
51214;SDS011;63849;47.546;19.254;2023-05-29T12:18:58;7.78;;;6.05;;
51214;SDS011;63849;47.546;19.254;2023-05-29T12:21:26;8.98;;;7.50;;
51214;SDS011;63849;47.546;19.254;2023-05-29T12:23:53;8.15;;;6.95;;
51214;SDS011;63849;47.546;19.254;2023-05-29T12:26:23;6.97;;;5.90;;
51214;SDS011;63849;47.546;19.254;2023-05-29T12:28:51;7.45;;;5.45;;
51214;SDS011;63849;47.546;19.254;2023-05-29T12:31:29;7.45;;;5.70;;
51214;SDS011;63849;47.546;19.254;2023-05-29T12:34:00;6.13;;;5.53;;
51214;SDS011;63849;47.546;19.254;2023-05-29T12:36:26;8.20;;;5.80;;
51214;SDS011;63849;47.546;19.254;2023-05-29T12:38:52;8.43;;;5.50;;
51214;SDS011;63849;47.546;19.254;2023-05-29T12:41:22;7.35;;;5.57;;
51214;SDS011;63849;47.546;19.254;2023-05-29T12:43:49;7.22;;;5.63;;
51214;SDS011;63849;47.546;19.254;2023-05-29T12:46:14;9.25;;;6.13;;
51214;SDS011;63849;47.546;19.254;2023-05-29T12:48:41;10.43;;;6.00;;
51214;SDS011;63849;47.546;19.254;2023-05-29T12:51:07;8.02;;;5.95;;
51214;SDS011;63849;47.546;19.254;2023-05-29T12:53:33;9.70;;;6.13;;
51214;SDS011;63849;47.546;19.254;2023-05-29T12:55:59;7.10;;;5.50;;
51214;SDS011;63849;47.546;19.254;2023-05-29T12:58:24;6.93;;;5.35;;
51214;SDS011;63849;47.546;19.254;2023-05-29T13:00:52;8.13;;;6.07;;
51214;SDS011;63849;47.546;19.254;2023-05-29T13:03:21;8.63;;;5.40;;
51214;SDS011;63849;47.546;19.254;2023-05-29T13:05:51;8.55;;;5.82;;
51214;SDS011;63849;47.546;19.254;2023-05-29T13:08:18;5.70;;;5.10;;
51214;SDS011;63849;47.546;19.254;2023-05-29T13:10:45;5.60;;;5.10;;
51214;SDS011;63849;47.546;19.254;2023-05-29T13:13:11;6.70;;;5.07;;
51214;SDS011;63849;47.546;19.254;2023-05-29T13:15:37;8.25;;;5.60;;
51214;SDS011;63849;47.546;19.254;2023-05-29T13:18:05;6.90;;;5.38;;
51214;SDS011;63849;47.546;19.254;2023-05-29T13:20:31;9.07;;;6.03;;
51214;SDS011;63849;47.546;19.254;2023-05-29T13:22:57;6.55;;;5.95;;
51214;SDS011;63849;47.546;19.254;2023-05-29T13:25:23;7.70;;;5.57;;
51214;SDS011;63849;47.546;19.254;2023-05-29T13:27:51;5.88;;;5.05;;
51214;SDS011;63849;47.546;19.254;2023-05-29T13:30:17;6.82;;;5.78;;
51214;SDS011;63849;47.546;19.254;2023-05-29T13:32:43;6.90;;;5.35;;
51214;SDS011;63849;47.546;19.254;2023-05-29T13:35:09;7.70;;;5.97;;
51214;SDS011;63849;47.546;19.254;2023-05-29T13:37:36;8.38;;;5.90;;
51214;SDS011;63849;47.546;19.254;2023-05-29T13:40:03;6.93;;;5.95;;
51214;SDS011;63849;47.546;19.254;2023-05-29T13:42:31;8.70;;;5.85;;
51214;SDS011;63849;47.546;19.254;2023-05-29T13:44:57;8.70;;;5.38;;
51214;SDS011;63849;47.546;19.254;2023-05-29T13:47:23;6.90;;;5.47;;
51214;SDS011;63849;47.546;19.254;2023-05-29T13:49:48;7.13;;;5.78;;
51214;SDS011;63849;47.546;19.254;2023-05-29T13:52:15;7.85;;;5.18;;
51214;SDS011;63849;47.546;19.254;2023-05-29T13:54:41;6.82;;;6.20;;
51214;SDS011;63849;47.546;19.254;2023-05-29T13:57:07;5.97;;;5.38;;
51214;SDS011;63849;47.546;19.254;2023-05-29T13:59:33;7.63;;;6.00;;
51214;SDS011;63849;47.546;19.254;2023-05-29T14:01:59;6.80;;;6.10;;
51214;SDS011;63849;47.546;19.254;2023-05-29T14:04:26;9.30;;;5.70;;
51214;SDS011;63849;47.546;19.254;2023-05-29T14:06:52;7.28;;;5.30;;
51214;SDS011;63849;47.546;19.254;2023-05-29T14:09:18;6.65;;;5.53;;
51214;SDS011;63849;47.546;19.254;2023-05-29T14:11:57;5.90;;;5.30;;
51214;SDS011;63849;47.546;19.254;2023-05-29T14:14:25;8.52;;;5.88;;
51214;SDS011;63849;47.546;19.254;2023-05-29T14:16:51;7.40;;;6.03;;
51214;SDS011;63849;47.546;19.254;2023-05-29T14:19:18;8.63;;;5.55;;
51214;SDS011;63849;47.546;19.254;2023-05-29T14:21:44;9.07;;;6.05;;
51214;SDS011;63849;47.546;19.254;2023-05-29T14:24:11;9.43;;;5.68;;
51214;SDS011;63849;47.546;19.254;2023-05-29T14:26:38;7.78;;;5.78;;
51214;SDS011;63849;47.546;19.254;2023-05-29T14:29:03;8.70;;;6.05;;
51214;SDS011;63849;47.546;19.254;2023-05-29T14:31:29;6.57;;;5.68;;
51214;SDS011;63849;47.546;19.254;2023-05-29T14:33:55;7.20;;;5.45;;
51214;SDS011;63849;47.546;19.254;2023-05-29T14:36:21;6.82;;;6.00;;
51214;SDS011;63849;47.546;19.254;2023-05-29T14:38:47;6.88;;;6.10;;
51214;SDS011;63849;47.546;19.254;2023-05-29T14:41:14;8.68;;;6.40;;
51214;SDS011;63849;47.546;19.254;2023-05-29T14:43:41;7.97;;;6.30;;
51214;SDS011;63849;47.546;19.254;2023-05-29T14:46:08;7.07;;;6.30;;
51214;SDS011;63849;47.546;19.254;2023-05-29T14:48:34;10.63;;;7.63;;
51214;SDS011;63849;47.546;19.254;2023-05-29T14:51:00;7.72;;;6.88;;
51214;SDS011;63849;47.546;19.254;2023-05-29T14:53:26;10.77;;;7.00;;
51214;SDS011;63849;47.546;19.254;2023-05-29T14:55:52;11.35;;;7.03;;
51214;SDS011;63849;47.546;19.254;2023-05-29T14:58:18;10.23;;;7.65;;
51214;SDS011;63849;47.546;19.254;2023-05-29T15:00:44;12.15;;;7.78;;
51214;SDS011;63849;47.546;19.254;2023-05-29T15:03:10;10.15;;;8.63;;
51214;SDS011;63849;47.546;19.254;2023-05-29T15:05:36;10.82;;;7.95;;
51214;SDS011;63849;47.546;19.254;2023-05-29T15:08:02;8.73;;;7.32;;